createdAt,value
2023-02-27T00:00:34.384Z,52.67
2023-02-27T00:03:03.411Z,52.26
2023-02-27T00:05:31.688Z,52.33
2023-02-27T00:07:59.373Z,52.05
2023-02-27T00:10:27.037Z,52.16
2023-02-27T00:12:55.165Z,52.08
2023-02-27T00:15:23.376Z,51.88
2023-02-27T00:17:51.810Z,51.81
2023-02-27T00:20:21.669Z,52.12
2023-02-27T00:22:49.370Z,52.02
2023-02-27T00:25:17.140Z,52.66
2023-02-27T00:27:45.719Z,52.56
2023-02-27T00:30:16.505Z,51.94
2023-02-27T00:32:45.442Z,52.03
2023-02-27T00:35:13.749Z,52.35
2023-02-27T00:37:42.778Z,52.41
2023-02-27T00:40:12.566Z,52.48
2023-02-27T00:42:40.389Z,52.87
2023-02-27T00:45:09.483Z,52.97
2023-02-27T00:47:37.889Z,53.07
2023-02-27T00:50:06.583Z,53.02
2023-02-27T00:52:34.655Z,52.98
2023-02-27T00:55:05.244Z,53.42
2023-02-27T00:57:33.022Z,53.33
2023-02-27T01:00:00.736Z,53.65
2023-02-27T01:02:29.155Z,53.26
2023-02-27T01:04:56.830Z,52.83
2023-02-27T01:07:24.511Z,53.64
2023-02-27T01:09:52.630Z,53.15
2023-02-27T01:12:21.778Z,52.55
2023-02-27T01:14:49.446Z,53.32
2023-02-27T01:17:17.606Z,53.62
2023-02-27T01:19:45.259Z,53.70
2023-02-27T01:22:12.964Z,53.27
2023-02-27T01:24:41.376Z,53.74
2023-02-27T01:27:09.091Z,53.58
2023-02-27T01:29:38.280Z,53.25
2023-02-27T01:32:06.761Z,52.95
2023-02-27T01:34:34.732Z,52.86
2023-02-27T01:37:02.425Z,53.88
2023-02-27T01:39:30.590Z,53.36
2023-02-27T01:41:58.236Z,53.10
2023-02-27T01:44:30.541Z,53.81
2023-02-27T01:46:59.571Z,53.90
2023-02-27T01:49:32.567Z,53.24
2023-02-27T01:52:06.092Z,53.62
2023-02-27T01:54:37.686Z,53.19
2023-02-27T01:57:07.195Z,53.79
2023-02-27T01:59:36.243Z,53.96
2023-02-27T02:02:13.291Z,53.73
2023-02-27T02:04:41.813Z,54.22
2023-02-27T02:07:14.768Z,53.32
2023-02-27T02:09:47.658Z,53.81
2023-02-27T02:12:17.668Z,53.73
2023-02-27T02:14:45.562Z,53.58
2023-02-27T02:17:20.159Z,53.83
2023-02-27T02:20:29.308Z,54.09
2023-02-27T02:23:32.926Z,54.65
2023-02-27T02:26:33.563Z,54.74
2023-02-27T02:29:35.237Z,54.10
2023-02-27T02:32:36.507Z,54.78
2023-02-27T02:35:39.541Z,54.05
2023-02-27T02:38:48.909Z,54.26
2023-02-27T02:41:26.017Z,54.17
2023-02-27T02:44:03.535Z,54.55
2023-02-27T02:46:37.533Z,54.02
2023-02-27T02:49:14.970Z,54.11
2023-02-27T02:51:50.712Z,54.04
2023-02-27T02:54:27.373Z,54.05
2023-02-27T02:57:04.676Z,53.98
2023-02-27T02:59:37.597Z,54.22
2023-02-27T03:02:09.891Z,54.12
2023-02-27T03:04:43.030Z,54.63
2023-02-27T03:07:16.004Z,54.73
2023-02-27T03:09:47.292Z,54.43
2023-02-27T03:12:23.688Z,55.50
2023-02-27T03:14:57.195Z,54.71
2023-02-27T03:17:31.065Z,55.49
2023-02-27T03:20:03.225Z,55.41
2023-02-27T03:22:36.065Z,55.96
2023-02-27T03:25:07.740Z,55.68
2023-02-27T03:27:42.442Z,55.71
2023-02-27T03:30:14.063Z,55.64
2023-02-27T03:32:47.857Z,55.63
2023-02-27T03:35:16.800Z,55.57
2023-02-27T03:37:57.503Z,55.76
2023-02-27T03:40:31.743Z,55.81
2023-02-27T03:43:09.369Z,55.87
2023-02-27T03:45:44.227Z,56.33
2023-02-27T03:48:13.606Z,55.31
2023-02-27T03:50:41.327Z,56.21
2023-02-27T03:53:15.102Z,55.62
2023-02-27T03:55:46.385Z,55.15
2023-02-27T03:58:16.330Z,55.28
2023-02-27T04:00:44.505Z,55.35
2023-02-27T04:03:12.633Z,55.12
2023-02-27T04:05:40.975Z,55.64
2023-02-27T04:08:26.754Z,56.28
2023-02-27T04:11:19.906Z,57.01
2023-02-27T04:14:06.737Z,55.76
2023-02-27T04:16:47.060Z,55.92
2023-02-27T04:19:24.775Z,56.02
2023-02-27T04:22:05.074Z,55.74
2023-02-27T04:24:39.008Z,56.15
2023-02-27T04:27:16.205Z,56.12
2023-02-27T04:29:54.221Z,56.28
2023-02-27T04:32:32.735Z,55.49
2023-02-27T04:35:04.776Z,55.27
2023-02-27T04:37:38.963Z,55.54
2023-02-27T04:40:11.964Z,55.81
2023-02-27T04:42:43.512Z,55.42
2023-02-27T04:45:17.301Z,55.27
2023-02-27T04:47:50.603Z,55.28
2023-02-27T04:50:23.964Z,55.43
2023-02-27T04:52:56.782Z,55.67
2023-02-27T04:55:28.433Z,55.52
2023-02-27T04:58:01.084Z,55.23
2023-02-27T05:00:32.303Z,55.17
2023-02-27T05:03:05.150Z,54.78
2023-02-27T05:05:36.538Z,55.09
2023-02-27T05:08:10.036Z,55.41
2023-02-27T05:10:41.836Z,55.43
2023-02-27T05:13:14.971Z,55.54
2023-02-27T05:15:48.517Z,55.58
2023-02-27T05:18:19.731Z,55.21
2023-02-27T05:20:57.355Z,55.05
2023-02-27T05:23:36.103Z,55.20
2023-02-27T05:26:10.082Z,54.69
2023-02-27T05:28:43.535Z,55.12
2023-02-27T05:31:19.340Z,54.83
2023-02-27T05:33:53.395Z,54.72
2023-02-27T05:36:29.131Z,55.09
2023-02-27T05:39:01.191Z,54.96
2023-02-27T05:41:33.029Z,55.25
2023-02-27T05:44:06.697Z,55.15
2023-02-27T05:46:38.977Z,55.53
2023-02-27T05:49:12.109Z,55.31
2023-02-27T05:51:44.525Z,55.26
2023-02-27T05:54:19.720Z,55.45
2023-02-27T05:56:50.827Z,55.74
2023-02-27T05:59:27.151Z,55.84
2023-02-27T06:01:56.736Z,55.78
2023-02-27T06:04:24.504Z,56.00
2023-02-27T06:06:53.476Z,55.46
2023-02-27T06:09:21.490Z,55.86
2023-02-27T06:11:50.679Z,55.92
2023-02-27T06:14:18.866Z,55.74
2023-02-27T06:16:46.540Z,55.64
2023-02-27T06:19:15.645Z,55.36
2023-02-27T06:21:43.734Z,56.05
2023-02-27T06:24:11.382Z,55.40
2023-02-27T06:26:39.060Z,56.17
2023-02-27T06:29:07.364Z,55.67
2023-02-27T06:31:35.023Z,55.75
2023-02-27T06:34:02.852Z,55.69
2023-02-27T06:36:32.460Z,56.06
2023-02-27T06:39:00.186Z,55.91
2023-02-27T06:41:28.565Z,55.65
2023-02-27T06:43:57.187Z,55.04
2023-02-27T06:46:25.609Z,55.94
2023-02-27T06:48:53.430Z,55.31
2023-02-27T06:51:21.708Z,55.79
2023-02-27T06:53:50.743Z,55.78
2023-02-27T06:56:18.378Z,55.86
2023-02-27T06:58:46.631Z,55.99
2023-02-27T07:01:15.205Z,56.25
2023-02-27T07:03:42.953Z,56.48
2023-02-27T07:06:12.870Z,56.54
2023-02-27T07:09:01.835Z,56.79
2023-02-27T07:11:30.387Z,56.79
2023-02-27T07:13:58.052Z,57.37
2023-02-27T07:16:26.155Z,56.55
2023-02-27T07:18:54.600Z,56.93
2023-02-27T07:21:22.754Z,56.84
2023-02-27T07:23:50.434Z,56.59
2023-02-27T07:26:19.322Z,56.44
2023-02-27T07:28:48.356Z,56.71
2023-02-27T07:31:16.075Z,56.72
2023-02-27T07:33:44.401Z,56.80
2023-02-27T07:36:12.072Z,56.15
2023-02-27T07:38:39.726Z,56.25
2023-02-27T07:41:08.649Z,56.93
2023-02-27T07:43:38.207Z,57.12
2023-02-27T07:46:07.428Z,57.06
2023-02-27T07:48:35.951Z,56.66
2023-02-27T07:51:03.612Z,56.79
2023-02-27T07:53:31.261Z,56.76
2023-02-27T07:55:59.826Z,57.01
2023-02-27T07:58:27.598Z,56.32
2023-02-27T08:00:55.590Z,56.54
2023-02-27T08:03:24.765Z,56.27
2023-02-27T08:05:52.430Z,56.26
2023-02-27T08:08:21.821Z,56.08
2023-02-27T08:10:50.960Z,55.26
2023-02-27T08:13:30.110Z,55.80
2023-02-27T08:16:03.964Z,55.28
2023-02-27T08:18:34.981Z,55.17
2023-02-27T08:21:05.342Z,54.98
2023-02-27T08:23:34.502Z,55.04
2023-02-27T08:26:02.370Z,54.54
2023-02-27T08:28:30.862Z,54.82
2023-02-27T08:30:58.575Z,54.06
2023-02-27T08:33:26.839Z,54.36
2023-02-27T08:35:56.397Z,53.46
2023-02-27T08:38:26.287Z,53.71
2023-02-27T08:40:54.207Z,53.51
2023-02-27T08:43:22.785Z,52.93
2023-02-27T08:45:51.230Z,53.05
2023-02-27T08:48:19.050Z,53.44
2023-02-27T08:50:47.948Z,52.49
2023-02-27T08:53:17.032Z,52.12
2023-02-27T08:55:44.729Z,51.88
2023-02-27T08:58:12.841Z,52.28
2023-02-27T09:00:40.538Z,51.92
2023-02-27T09:03:08.254Z,52.49
2023-02-27T09:05:37.811Z,51.57
2023-02-27T09:08:07.118Z,51.83
2023-02-27T09:10:36.503Z,51.37
2023-02-27T09:13:04.674Z,50.95
2023-02-27T09:15:32.974Z,50.70
2023-02-27T09:18:03.106Z,50.60
2023-02-27T09:20:32.272Z,50.35
2023-02-27T09:23:00.291Z,50.07
2023-02-27T09:25:28.780Z,48.78
2023-02-27T09:27:58.616Z,49.10
2023-02-27T09:30:26.465Z,48.89
2023-02-27T09:32:54.219Z,48.85
2023-02-27T09:35:22.954Z,49.39
2023-02-27T09:37:50.690Z,48.53
2023-02-27T09:40:24.277Z,48.99
2023-02-27T09:42:54.864Z,48.23
2023-02-27T09:45:27.192Z,49.15
2023-02-27T09:47:59.166Z,48.05
2023-02-27T09:50:37.634Z,48.21
2023-02-27T09:53:07.169Z,48.15
2023-02-27T09:55:36.629Z,49.17
2023-02-27T09:58:09.175Z,47.51
2023-02-27T10:00:48.096Z,48.48
2023-02-27T10:03:30.934Z,46.53
2023-02-27T10:06:13.572Z,47.36
2023-02-27T10:08:49.389Z,47.98
2023-02-27T10:11:22.878Z,47.71
2023-02-27T10:14:00.505Z,47.20
2023-02-27T10:16:33.246Z,47.70
2023-02-27T10:19:04.477Z,47.16
2023-02-27T10:21:35.649Z,48.23
2023-02-27T10:24:09.500Z,46.87
2023-02-27T10:26:40.510Z,47.04
2023-02-27T10:29:19.005Z,47.07
2023-02-27T10:31:53.820Z,46.68
2023-02-27T10:34:24.272Z,46.27
2023-02-27T10:36:52.674Z,46.30
2023-02-27T10:39:22.640Z,46.99
2023-02-27T10:41:52.049Z,46.12
2023-02-27T10:44:19.972Z,46.83
2023-02-27T10:46:51.797Z,46.07
2023-02-27T10:49:21.980Z,45.64
2023-02-27T10:52:07.154Z,46.13
2023-02-27T10:54:35.468Z,44.78
2023-02-27T10:57:05.403Z,45.72
2023-02-27T10:59:36.796Z,44.81
2023-02-27T11:02:20.819Z,45.32
2023-02-27T11:04:54.380Z,44.79
2023-02-27T11:07:31.154Z,44.65
2023-02-27T11:10:18.812Z,44.87
2023-02-27T11:13:00.476Z,41.69
2023-02-27T11:15:30.285Z,43.03
2023-02-27T11:18:21.748Z,44.17
2023-02-27T11:20:51.272Z,43.38
2023-02-27T11:23:21.356Z,43.97
2023-02-27T11:25:50.057Z,42.40
2023-02-27T11:28:25.645Z,42.72
2023-02-27T11:31:01.949Z,43.24
2023-02-27T11:33:36.730Z,42.21
2023-02-27T11:36:05.396Z,42.43
2023-02-27T11:38:34.727Z,42.44
2023-02-27T11:41:04.747Z,43.25
2023-02-27T11:43:35.533Z,42.97
2023-02-27T11:46:29.938Z,43.66
2023-02-27T11:49:04.063Z,42.77
2023-02-27T11:51:44.272Z,42.91
2023-02-27T11:54:19.128Z,43.03
2023-02-27T11:56:50.401Z,43.16
2023-02-27T11:59:33.960Z,41.68
2023-02-27T12:02:07.458Z,41.91
2023-02-27T12:04:47.053Z,41.35
2023-02-27T12:07:20.353Z,41.46
2023-02-27T12:09:57.612Z,42.38
2023-02-27T12:12:30.488Z,41.99
2023-02-27T12:15:06.670Z,41.64
2023-02-27T12:17:42.203Z,42.06
2023-02-27T12:20:28.339Z,42.50
2023-02-27T12:22:56.995Z,42.37
2023-02-27T12:25:36.766Z,42.85
2023-02-27T12:28:14.196Z,42.49
2023-02-27T12:30:49.522Z,42.73
2023-02-27T12:33:28.703Z,42.19
2023-02-27T12:36:02.807Z,42.30
2023-02-27T12:38:31.699Z,43.09
2023-02-27T12:41:15.817Z,42.94
2023-02-27T12:43:50.505Z,41.51
2023-02-27T12:46:29.664Z,42.71
2023-02-27T12:49:11.700Z,42.71
2023-02-27T12:51:50.173Z,42.11
2023-02-27T12:54:28.292Z,42.41
2023-02-27T12:57:23.647Z,40.60
2023-02-27T13:00:03.174Z,40.37
2023-02-27T13:02:44.690Z,40.30
2023-02-27T13:05:29.533Z,40.77
2023-02-27T13:08:07.878Z,40.67
2023-02-27T13:10:40.482Z,40.65
2023-02-27T13:13:17.506Z,41.52
2023-02-27T13:15:53.292Z,41.11
2023-02-27T13:18:32.128Z,40.86
2023-02-27T13:21:04.792Z,40.34
2023-02-27T13:23:43.997Z,40.83
2023-02-27T13:26:22.010Z,41.41
2023-02-27T13:28:51.540Z,40.79
2023-02-27T13:31:30.144Z,40.52
2023-02-27T13:34:09.096Z,40.60
2023-02-27T13:36:41.772Z,40.22
2023-02-27T13:39:59.562Z,40.94
2023-02-27T13:42:59.283Z,41.08
2023-02-27T13:45:56.929Z,41.22
2023-02-27T13:48:52.376Z,40.92
2023-02-27T13:51:45.142Z,40.92
2023-02-27T13:54:36.817Z,40.38
2023-02-27T13:57:24.339Z,41.06
2023-02-27T14:00:00.636Z,41.62
2023-02-27T14:02:56.454Z,40.95
2023-02-27T14:05:37.641Z,40.84
2023-02-27T14:08:08.059Z,41.05
2023-02-27T14:10:38.642Z,41.62
2023-02-27T14:13:27.959Z,40.97
2023-02-27T14:16:00.900Z,40.46
2023-02-27T14:18:53.108Z,40.95
2023-02-27T14:21:59.599Z,40.38
2023-02-27T14:24:38.211Z,41.05
2023-02-27T14:27:15.976Z,40.31
2023-02-27T14:29:48.008Z,40.43
2023-02-27T14:32:23.237Z,40.82
2023-02-27T14:34:52.705Z,40.31
2023-02-27T14:37:24.034Z,39.77
2023-02-27T14:39:54.525Z,40.72
2023-02-27T14:42:38.814Z,39.70
2023-02-27T14:45:14.936Z,40.19
2023-02-27T14:47:46.612Z,40.49
2023-02-27T14:50:27.685Z,40.09
2023-02-27T14:52:56.435Z,40.51
2023-02-27T14:55:29.967Z,41.49
2023-02-27T14:58:01.007Z,41.40
2023-02-27T15:00:40.694Z,41.39
2023-02-27T15:03:23.018Z,40.89
2023-02-27T15:05:52.989Z,41.28
2023-02-27T15:08:24.392Z,41.38
2023-02-27T15:10:54.002Z,41.70
2023-02-27T15:13:25.177Z,41.45
2023-02-27T15:15:56.978Z,40.64
2023-02-27T15:18:28.066Z,41.42
2023-02-27T15:21:00.541Z,40.73
2023-02-27T15:23:30.541Z,41.27
2023-02-27T15:26:00.611Z,40.72
2023-02-27T15:28:35.402Z,41.00
2023-02-27T15:31:03.647Z,41.70
2023-02-27T15:33:34.462Z,41.22
2023-02-27T15:36:03.338Z,41.48
2023-02-27T15:38:33.173Z,41.21
2023-02-27T15:41:03.301Z,41.76
2023-02-27T15:43:32.116Z,41.89
2023-02-27T15:46:00.644Z,41.60
2023-02-27T15:48:29.899Z,42.39
2023-02-27T15:51:03.458Z,42.04
2023-02-27T15:53:34.393Z,43.03
2023-02-27T15:56:06.217Z,41.80
2023-02-27T15:58:37.338Z,41.95
2023-02-27T16:01:09.129Z,41.63
2023-02-27T16:03:39.928Z,41.97
2023-02-27T16:06:16.302Z,40.72
2023-02-27T16:08:49.693Z,41.35
2023-02-27T16:11:21.380Z,40.45
2023-02-27T16:13:50.229Z,41.70
2023-02-27T16:16:29.095Z,40.97
2023-02-27T16:18:59.816Z,42.00
2023-02-27T16:21:31.233Z,41.90
2023-02-27T16:24:21.413Z,41.29
2023-02-27T16:26:53.452Z,41.25
2023-02-27T16:29:24.261Z,41.35
2023-02-27T16:31:54.487Z,41.89
2023-02-27T16:34:42.840Z,41.32
2023-02-27T16:37:22.110Z,41.99
2023-02-27T16:39:52.598Z,41.37
2023-02-27T16:42:21.048Z,42.33
2023-02-27T16:44:49.187Z,42.19
2023-02-27T16:47:17.691Z,41.35
2023-02-27T16:49:46.433Z,42.05
2023-02-27T16:52:14.528Z,42.06
2023-02-27T16:54:44.250Z,42.35
2023-02-27T16:57:13.991Z,41.51
2023-02-27T16:59:41.773Z,41.70
2023-02-27T17:02:14.216Z,42.23
2023-02-27T17:04:46.796Z,41.27
2023-02-27T17:07:18.682Z,41.50
2023-02-27T17:09:48.563Z,41.47
2023-02-27T17:12:16.397Z,42.53
2023-02-27T17:14:44.429Z,41.63
2023-02-27T17:17:12.457Z,41.85
2023-02-27T17:19:40.588Z,41.47
2023-02-27T17:22:09.116Z,42.26
2023-02-27T17:24:38.536Z,41.42
2023-02-27T17:27:08.702Z,41.45
2023-02-27T17:29:39.010Z,41.94
2023-02-27T17:32:07.666Z,41.94
2023-02-27T17:34:35.871Z,41.65
2023-02-27T17:37:04.257Z,42.07
2023-02-27T17:39:33.545Z,42.29
2023-02-27T17:42:01.728Z,41.83
2023-02-27T17:44:31.730Z,42.21
2023-02-27T17:46:59.605Z,41.62
2023-02-27T17:49:27.661Z,42.04
2023-02-27T17:51:55.773Z,41.88
2023-02-27T17:54:23.724Z,42.73
2023-02-27T17:56:51.703Z,43.10
2023-02-27T17:59:48.916Z,42.82
2023-02-27T18:02:17.053Z,42.46
2023-02-27T18:05:35.267Z,42.20
2023-02-27T18:08:08.466Z,42.50
2023-02-27T18:10:37.232Z,42.17
2023-02-27T18:13:07.894Z,42.60
2023-02-27T18:15:37.353Z,42.72
2023-02-27T18:18:06.181Z,42.55
2023-02-27T18:20:34.606Z,43.46
2023-02-27T18:23:02.776Z,43.42
2023-02-27T18:25:31.365Z,42.75
2023-02-27T18:28:01.310Z,42.73
2023-02-27T18:30:30.877Z,42.49
2023-02-27T18:33:01.037Z,43.42
2023-02-27T18:35:29.687Z,43.82
2023-02-27T18:37:58.023Z,42.92
2023-02-27T18:40:27.028Z,43.29
2023-02-27T18:42:55.292Z,43.36
2023-02-27T18:45:24.505Z,43.26
2023-02-27T18:47:53.601Z,43.37
2023-02-27T18:50:23.385Z,43.87
2023-02-27T18:52:51.598Z,43.75
2023-02-27T18:55:20.045Z,43.97
2023-02-27T18:57:47.963Z,43.43
2023-02-27T19:00:16.362Z,44.01
2023-02-27T19:02:44.697Z,43.50
2023-02-27T19:05:14.581Z,44.08
2023-02-27T19:07:44.337Z,43.60
2023-02-27T19:10:13.105Z,43.96
2023-02-27T19:12:41.172Z,43.45
2023-02-27T19:15:12.138Z,44.06
2023-02-27T19:17:40.150Z,43.53
2023-02-27T19:20:09.076Z,43.61
2023-02-27T19:22:37.294Z,43.63
2023-02-27T19:25:07.634Z,43.44
2023-02-27T19:27:35.479Z,44.08
2023-02-27T19:30:03.720Z,44.01
2023-02-27T19:32:33.592Z,43.91
2023-02-27T19:35:01.593Z,44.48
2023-02-27T19:37:30.490Z,44.49
2023-02-27T19:39:58.652Z,44.62
2023-02-27T19:42:28.174Z,44.09
2023-02-27T19:44:56.199Z,44.88
2023-02-27T19:47:24.393Z,44.92
2023-02-27T19:49:52.726Z,44.28
2023-02-27T19:52:21.213Z,44.24
2023-02-27T19:54:49.731Z,44.66
2023-02-27T19:57:20.238Z,44.57
2023-02-27T19:59:50.614Z,44.75
2023-02-27T20:02:18.680Z,44.74
2023-02-27T20:04:46.892Z,45.04
2023-02-27T20:07:15.578Z,45.02
2023-02-27T20:09:43.783Z,45.66
2023-02-27T20:12:12.028Z,45.55
2023-02-27T20:14:40.258Z,45.06
2023-02-27T20:17:09.831Z,44.68
2023-02-27T20:19:37.909Z,45.12
2023-02-27T20:22:06.873Z,46.18
2023-02-27T20:24:35.331Z,45.32
2023-02-27T20:27:04.405Z,44.99
2023-02-27T20:29:32.945Z,45.10
2023-02-27T20:32:01.383Z,46.03
2023-02-27T20:34:31.012Z,45.21
2023-02-27T20:37:00.882Z,45.83
2023-02-27T20:39:29.759Z,45.77
2023-02-27T20:41:58.110Z,45.38
2023-02-27T20:44:27.159Z,46.18
2023-02-27T20:46:55.442Z,45.85
2023-02-27T20:49:23.578Z,46.21
2023-02-27T20:51:54.320Z,46.18
2023-02-27T20:54:22.757Z,45.71
2023-02-27T20:56:54.448Z,46.46
2023-02-27T20:59:25.154Z,46.64
2023-02-27T21:01:55.027Z,47.02
2023-02-27T21:04:24.035Z,46.28
2023-02-27T21:06:54.630Z,47.21
2023-02-27T21:09:22.821Z,46.27
2023-02-27T21:11:51.237Z,47.18
2023-02-27T21:14:18.906Z,47.06
2023-02-27T21:16:47.140Z,46.54
2023-02-27T21:19:14.803Z,46.57
2023-02-27T21:21:42.487Z,46.66
2023-02-27T21:24:11.932Z,46.32
2023-02-27T21:26:40.193Z,46.11
2023-02-27T21:29:10.633Z,46.37
2023-02-27T21:31:40.730Z,46.31
2023-02-27T21:34:12.409Z,47.17
2023-02-27T21:36:42.738Z,46.10
2023-02-27T21:39:14.714Z,46.91
2023-02-27T21:41:43.141Z,46.59
2023-02-27T21:44:13.529Z,46.68
2023-02-27T21:46:41.538Z,47.16
2023-02-27T21:49:09.884Z,47.23
2023-02-27T21:51:41.227Z,47.25
2023-02-27T21:54:13.515Z,47.45
2023-02-27T21:56:41.926Z,46.85
2023-02-27T21:59:10.281Z,47.63
2023-02-27T22:01:39.241Z,47.61
2023-02-27T22:04:07.636Z,48.00
2023-02-27T22:06:36.014Z,47.18
2023-02-27T22:09:06.775Z,47.21
2023-02-27T22:11:36.437Z,48.37
2023-02-27T22:14:04.374Z,48.20
2023-02-27T22:16:32.537Z,48.17
2023-02-27T22:19:00.272Z,48.24
2023-02-27T22:21:28.949Z,47.37
2023-02-27T22:23:59.492Z,47.65
2023-02-27T22:26:29.210Z,48.10
2023-02-27T22:28:58.400Z,47.98
2023-02-27T22:31:29.425Z,47.64
2023-02-27T22:34:01.800Z,48.24
2023-02-27T22:36:32.559Z,48.00
2023-02-27T22:39:00.684Z,48.41
2023-02-27T22:41:31.167Z,48.31
2023-02-27T22:44:02.732Z,48.50
2023-02-27T22:46:32.884Z,48.57
2023-02-27T22:49:02.596Z,48.49
2023-02-27T22:51:31.243Z,48.55
2023-02-27T22:54:01.540Z,48.44
2023-02-27T22:56:29.751Z,48.09
2023-02-27T22:58:58.596Z,48.30
2023-02-27T23:01:30.003Z,48.55
2023-02-27T23:04:00.793Z,49.06
2023-02-27T23:06:30.825Z,49.17
2023-02-27T23:08:58.976Z,48.96
2023-02-27T23:11:27.319Z,48.55
2023-02-27T23:13:55.196Z,49.36
2023-02-27T23:16:23.351Z,49.31
2023-02-27T23:18:55.138Z,49.17
2023-02-27T23:21:24.971Z,49.13
2023-02-27T23:23:53.738Z,49.17
2023-02-27T23:26:22.089Z,49.39
2023-02-27T23:28:49.834Z,48.75
2023-02-27T23:31:17.563Z,49.07
2023-02-27T23:33:46.206Z,49.45
2023-02-27T23:36:15.349Z,48.53
2023-02-27T23:38:43.102Z,49.20
2023-02-27T23:41:13.493Z,49.40
2023-02-27T23:43:41.145Z,49.09
2023-02-27T23:46:10.746Z,49.46
2023-02-27T23:48:38.769Z,49.25
2023-02-27T23:51:08.280Z,48.95
2023-02-27T23:53:40.483Z,49.74
2023-02-27T23:56:16.529Z,49.14
2023-02-27T23:58:45.615Z,50.02
